Main page
METAR-TAF:

METAR-TAF

Airports :

Lyon, France

Lyon–Bron Airport

latitude: 45-43N, longitude: 004-57E, elevation: 200 m

Current weather observation

The report was made 24 minutes ago, at 03:30 UTC
Calm wind
Temperature 9°C
Humidity 87%
Pressure 1023 hPa
Visibility 10 km or more
no clouds below 1500 m and no cumulonimbus

METAR: LFLY 200330Z AUTO 00000KT CAVOK 09/07 Q1023 TEMPO 3000 BR BKN006

Time: 05:54 (03:54 UTC)

Forecast

The report was made 4 hours and 54 minutes ago, at 23:00 UTC
Forecast valid from 20 at 00 UTC to 20 at 24 UTC
Wind 4 kt from the North
Visibility 10 km or more
no clouds below 1500 m and no cumulonimbus
Probability 40% :
Temporary
from 20 at 03 UTC to 20 at 08 UTC
Visibility: 3000 m
Broken clouds at a height of 600 ft
mist
Becoming
from 20 at 10 UTC to 20 at 12 UTC
Wind 12 kt from the North
Becoming
from 20 at 19 UTC to 20 at 21 UTC
Wind 2 kt from variable directions

TAF: LFLY 192300Z 2000/2024 35004KT CAVOK PROB40 TEMPO 2003/2008 3000 BR BKN006 BECMG 2010/2012 36012KT BECMG 2019/2021 VRB02KT

Weather observations and forecasts of more than 4000 airports (METAR and TAF reports).

The available stations are represented by yellow and red dots on the map.

Hover mouse over dot to see the name of the station.

Then click to see weather observations and forecasts.

To change the map : click on the green buttons with a black cross to zoom in, on the green button with a dash to zoom out, or on the green arrows for adjacent maps.


METAR-TAF: